Woodland Park, CO

9:35 PM MDT on October 24, 2014 (GMT -0600)
The Wookies Den | Change Station
CLOSE
Current Station
Personal Weather Station
Location: Woodland Park, CO
Elevation: 8432 ft
Nearby Weather Stations

Elev 8432 ft 39.00 °N, 105.07 °W | Updated 23 seconds ago

Clear
Clear
42.0 °F
Feels Like 42 °F
N
0.0
Wind Variable Wind from SW
Gusts 11.0 mph

Today
High -- | Low -- °F
--% Chance of Precip.
Yesterday
High -- | Low -- °F
Precip. -- in
7:19 AM 6:09 PM
New Moon, 2% visible
Pressure 30.32 in
Visibility 10.0 miles
Clouds Clear
Windchill 42 °F
Dew Point 22 °F
Humidity 45%
Rainfall 0.00 in
Snow Depth 1 in
UV 0 out of 12
Pollen 3.10 out of 12
PM2.5 Good
Flu Activity Sporadic
METAR KFLY 250313Z AUTO 24008KT 10SM CLR 11/M04 A3032 RMK AO2 T01141044

More Conditions Fewer Conditions

Pressure 30.32 in
Visibility 10.0 miles
Clouds Clear
Windchill 42 °F
Dew Point 22 °F
Humidity 45%
Rainfall 0.00 in
Snow Depth 1 in
UV 0 out of 12
Pollen 3.10 out of 12
PM2.5 Good
Flu Activity Sporadic
METAR KFLY 250313Z AUTO 24008KT 10SM CLR 11/M04 A3032 RMK AO2 T01141044

More Conditions Fewer Conditions

10-Day Weather Forecast

Almanac

Astronomy

Oct. 24, 2014 Rise Set
Actual Time 7:19 AM MDT 6:09 PM MDT
Civil Twilight 6:51 AM MDT 6:36 PM MDT
Nautical Twilight 6:20 AM MDT 7:07 PM MDT
Astronomical Twilight 5:49 AM MDT 7:38 PM MDT
Moon 8:00 AM MDT (10/24) 6:51 PM MDT (10/24)
Length of Visible Light 11h 44m
Length of Day
10h 50m
Tomorrow will be 2m 20s shorter.
New Moon, 2% of the Moon is Illuminated
Today
New Moon
Oct 30
First Quarter
Nov 6
Full
Nov 14
Last Quarter
Nov 22
New

Today's Extremes

State Highs State Lows

Community

WunderPhotos

Upload Photos

1,764,771 photos uploaded!

Nearby

Air Quality

  Air Quality AQ Index Pollutant
Yesterday Good
OZONE
Yesterday Good
PM2.5
Current Good
PM2.5
Friday Good
PM2.5
Friday Good
OZONE
Saturday Good
PM2.5
Saturday Good
OZONE
Sunday Good
PM2.5
Sunday Good
OZONE
Monday Good
PM2.5
Monday Good
OZONE

Snow Depth

Station Depth Elevation
Glen Cove 1 in 11460 ft
Echo Lake 0 in 10600 ft
Michigan Creek 0 in 10600 ft
Jackwhacker Gulch 0 in 10960 ft
Grizzly Peak 0 in 11100 ft

Earthquake Activity

City Distance Mag. Time & Date
No recent earthquake activity has been reported nearby.
Minimum magnitude displayed is 2.5.

Coastal Water Temperatures

Place Temperature
No Stations Reporting

Nearby Weather Stations